Time;durP1;ratioP1;P1;durP2;ratioP2;P2;SDS_P1;SDS_P2;PMS_P1;PMS_P2;Temp;Humidity;BMP_temperature;BMP_pressure;BME280_temperature;BME280_humidity;BME280_pressure;Samples;Min_cycle;Max_cycle;Signal;HPM_P1;HPM_P2
2022/08/08 00:01:18;;;;;;;4.65;3.58;;;;;;;18.96;94.84;99927.61;1685570;85;21536;-76
2022/08/08 00:03:53;;;;;;;8.33;4.15;;;;;;;18.96;94.69;99928.94;1685516;85;21114;-75
2022/08/08 00:07:01;;;;;;;6.08;3.60;;;;;;;18.96;94.61;99933.78;1685410;84;21146;-75
2022/08/08 00:09:42;;;;;;;4.15;3.40;;;;;;;18.96;94.59;99936.94;1685060;85;21609;-75
2022/08/08 00:12:11;;;;;;;6.53;4.03;;;;;;;18.92;94.55;99930.45;1685342;85;21139;-75
2022/08/08 00:14:54;;;;;;;11.33;3.70;;;;;;;18.92;94.51;99935.80;1685498;85;21570;-75
2022/08/08 00:17:33;;;;;;;4.25;3.52;;;;;;;18.91;94.44;99942.09;1685165;85;21044;-75
2022/08/08 00:20:05;;;;;;;4.37;3.75;;;;;;;18.87;94.45;99940.56;1685592;85;21489;-75
2022/08/08 00:22:52;;;;;;;5.42;3.92;;;;;;;18.87;94.54;99935.71;1685236;85;21039;-75
2022/08/08 00:25:23;;;;;;;5.83;3.27;;;;;;;18.85;94.51;99930.47;1685370;85;21066;-75
2022/08/08 00:27:52;;;;;;;4.90;4.28;;;;;;;18.86;94.46;99934.87;1685161;85;21558;-75
2022/08/08 00:30:18;;;;;;;5.30;3.98;;;;;;;18.87;94.51;99928.56;1685457;85;20972;-75
2022/08/08 00:32:58;;;;;;;6.00;3.80;;;;;;;18.87;94.48;99931.23;1684814;84;22574;-75
2022/08/08 00:35:42;;;;;;;9.18;3.62;;;;;;;18.85;94.52;99925.63;1705215;81;21068;-75
2022/08/08 00:38:43;;;;;;;7.95;3.83;;;;;;;18.84;94.55;99931.41;1737653;81;21625;-75
2022/08/08 00:41:32;;;;;;;6.80;3.35;;;;;;;18.83;94.68;99925.72;1738882;81;21137;-75
2022/08/08 00:44:10;;;;;;;10.70;3.72;;;;;;;18.78;94.88;99927.78;1733872;81;20984;-75
2022/08/08 00:46:48;;;;;;;5.58;4.03;;;;;;;18.79;94.81;99932.14;1736625;81;21102;-75
2022/08/08 00:49:52;;;;;;;5.20;3.83;;;;;;;18.78;94.84;99922.45;1724310;81;21685;-75
2022/08/08 00:52:42;;;;;;;5.62;3.58;;;;;;;18.76;94.83;99923.00;1713557;83;22130;-75
2022/08/08 00:55:21;;;;;;;10.13;3.62;;;;;;;18.75;95.02;99923.48;1713180;83;21196;-75
2022/08/08 00:58:09;;;;;;;5.33;3.27;;;;;;;18.78;95.05;99924.23;1688715;83;21028;-75
2022/08/08 01:01:09;;;;;;;4.72;3.67;;;;;;;18.81;95.05;99930.27;1641324;87;21202;-75
2022/08/08 01:03:58;;;;;;;10.25;4.03;;;;;;;18.79;95.08;99928.14;1713488;83;21206;-75
2022/08/08 01:06:38;;;;;;;9.38;4.22;;;;;;;18.74;95.04;99924.45;1712762;83;21013;-75
2022/08/08 01:09:37;;;;;;;7.70;4.10;;;;;;;18.71;95.08;99927.77;1713349;83;21511;-75
2022/08/08 01:12:23;;;;;;;8.13;4.62;;;;;;;18.65;95.12;99921.50;1711881;83;21133;-75
2022/08/08 01:15:35;;;;;;;15.05;4.70;;;;;;;18.60;95.35;99921.77;1712639;83;21063;-75
2022/08/08 01:18:45;;;;;;;9.55;4.35;;;;;;;18.53;95.53;99921.30;1713088;83;21052;-75
2022/08/08 01:21:32;;;;;;;8.28;4.35;;;;;;;18.46;95.73;99919.96;1713535;83;21016;-75
2022/08/08 01:24:45;;;;;;;5.28;4.78;;;;;;;18.40;96.06;99915.00;1713075;83;21299;-75
2022/08/08 01:27:34;;;;;;;8.30;4.42;;;;;;;18.31;96.37;99919.08;1713376;83;21325;-75
2022/08/08 01:30:50;;;;;;;6.00;4.33;;;;;;;18.22;96.79;99914.78;1713055;83;22351;-75
2022/08/08 01:34:03;;;;;;;11.12;4.58;;;;;;;18.20;97.11;99914.38;1713090;83;21095;-75
2022/08/08 01:37:21;;;;;;;8.08;4.28;;;;;;;18.17;97.57;99917.25;1712909;83;20988;-75
2022/08/08 01:40:40;;;;;;;9.85;5.28;;;;;;;18.11;97.90;99922.94;1713004;83;21594;-75
2022/08/08 01:43:34;;;;;;;12.30;5.03;;;;;;;18.09;98.25;99922.63;1713463;83;21626;-76
2022/08/08 01:46:40;;;;;;;12.95;5.28;;;;;;;18.03;98.57;99926.52;1710931;83;21043;-75
2022/08/08 01:49:36;;;;;;;10.38;5.30;;;;;;;18.01;98.78;99930.61;1713345;83;21059;-76
2022/08/08 01:52:26;;;;;;;15.90;4.65;;;;;;;17.99;99.05;99932.99;1712884;83;21162;-75
2022/08/08 01:55:13;;;;;;;21.60;5.40;;;;;;;17.96;99.24;99926.51;1713133;83;21122;-75
2022/08/08 01:57:53;;;;;;;10.50;6.05;;;;;;;17.90;99.40;99927.70;1704607;83;21072;-75
2022/08/08 02:00:26;;;;;;;10.53;5.35;;;;;;;17.89;99.56;99939.32;1696201;83;22012;-75
2022/08/08 02:03:20;;;;;;;8.58;5.17;;;;;;;17.85;99.79;99935.55;1726602;83;21112;-74
2022/08/08 02:05:57;;;;;;;10.43;5.87;;;;;;;17.81;100.00;99933.06;1726724;83;20993;-75
2022/08/08 02:08:47;;;;;;;6.33;5.70;;;;;;;17.77;100.00;99932.87;1726709;81;21128;-75
2022/08/08 02:11:33;;;;;;;10.05;5.90;;;;;;;17.70;100.00;99928.86;1726682;81;21060;-75
2022/08/08 02:14:20;;;;;;;8.00;5.35;;;;;;;17.66;100.00;99937.95;1726532;83;21175;-75
2022/08/08 02:17:08;;;;;;;11.35;5.70;;;;;;;17.60;100.00;99933.84;1726821;81;21005;-75
2022/08/08 02:19:56;;;;;;;7.17;5.40;;;;;;;17.59;100.00;99932.59;1726533;83;21157;-75
2022/08/08 02:22:34;;;;;;;6.85;5.08;;;;;;;17.58;100.00;99938.85;1701407;83;22130;-75
2022/08/08 02:25:43;;;;;;;14.18;4.78;;;;;;;17.58;100.00;99934.86;1726420;81;21092;-75
2022/08/08 02:28:49;;;;;;;10.05;5.15;;;;;;;17.61;100.00;99938.20;1662724;84;21126;-76
2022/08/08 02:31:39;;;;;;;7.37;5.03;;;;;;;17.64;100.00;99935.38;1693673;84;21020;-75
2022/08/08 02:34:53;;;;;;;8.33;4.50;;;;;;;17.69;100.00;99940.92;1694637;84;21099;-75
2022/08/08 02:38:02;;;;;;;9.00;4.67;;;;;;;17.72;100.00;99937.60;1684723;84;21170;-75
2022/08/08 02:40:49;;;;;;;9.38;4.83;;;;;;;17.75;100.00;99936.10;1683001;85;21096;-75
2022/08/08 02:43:58;;;;;;;7.62;4.50;;;;;;;17.80;100.00;99943.34;1741638;82;21035;-75
2022/08/08 02:46:39;;;;;;;7.62;5.17;;;;;;;17.81;100.00;99943.71;1742288;82;21052;-75
2022/08/08 02:49:43;;;;;;;8.10;4.87;;;;;;;17.85;100.00;99935.07;1743097;82;21064;-75
2022/08/08 02:52:40;;;;;;;7.15;5.28;;;;;;;17.85;100.00;99941.72;1720184;82;21185;-75
2022/08/08 02:55:25;;;;;;;11.95;5.10;;;;;;;17.82;100.00;99944.11;1742496;82;21067;-75
2022/08/08 02:58:07;;;;;;;7.12;5.17;;;;;;;17.76;100.00;99944.45;1740942;82;21058;-75
2022/08/08 03:01:15;;;;;;;10.30;4.92;;;;;;;17.73;100.00;99947.28;1742511;82;21004;-75
2022/08/08 03:04:11;;;;;;;5.85;4.55;;;;;;;17.75;100.00;99946.75;1742347;82;21016;-75
2022/08/08 03:07:07;;;;;;;9.40;4.95;;;;;;;17.80;100.00;99943.34;1742714;82;21751;-74
2022/08/08 03:10:17;;;;;;;13.80;5.28;;;;;;;17.85;100.00;99951.52;1742311;82;21030;-76
2022/08/08 03:13:23;;;;;;;7.53;4.53;;;;;;;17.83;100.00;99955.13;1742468;82;21074;-74
2022/08/08 03:16:22;;;;;;;8.03;4.80;;;;;;;17.81;100.00;99957.02;1742690;82;21068;-75
2022/08/08 03:19:31;;;;;;;8.25;4.90;;;;;;;17.75;100.00;99955.19;1741521;82;21043;-75
2022/08/08 03:21:57;;;;;;;10.15;5.20;;;;;;;17.74;100.00;99955.66;1742136;82;21588;-75
2022/08/08 03:24:23;;;;;;;15.25;5.37;;;;;;;17.72;100.00;99960.22;1743065;82;22029;-75
2022/08/08 03:26:55;;;;;;;9.73;4.65;;;;;;;17.74;100.00;99956.15;1742096;82;21123;-75
2022/08/08 03:29:27;;;;;;;10.58;5.42;;;;;;;17.75;100.00;99958.72;1742719;81;21439;-75
2022/08/08 03:34:38;;;;;;;;;;;;;;;17.67;100.00;99963.63;1745554;82;21107;-75
2022/08/08 03:37:11;;;;;;;9.00;5.00;;;;;;;17.63;100.00;99961.61;1747328;81;20209;-74
2022/08/08 03:39:38;;;;;;;7.40;5.42;;;;;;;17.63;100.00;99960.73;1727165;82;21074;-74
2022/08/08 03:42:04;;;;;;;10.48;5.45;;;;;;;17.64;100.00;99957.14;1748115;82;21332;-74
2022/08/08 03:44:34;;;;;;;5.80;5.10;;;;;;;17.64;100.00;99958.47;1735002;82;21056;-75
2022/08/08 03:47:02;;;;;;;9.55;5.20;;;;;;;17.67;100.00;99959.63;1734945;82;21117;-74
2022/08/08 03:49:29;;;;;;;15.08;4.80;;;;;;;17.72;100.00;99967.33;1734924;82;20988;-74
2022/08/08 03:51:56;;;;;;;9.85;5.35;;;;;;;17.74;100.00;99968.97;1735495;82;21111;-74
2022/08/08 03:54:25;;;;;;;11.45;5.72;;;;;;;17.79;100.00;99973.55;1737938;82;21110;-75
2022/08/08 03:56:51;;;;;;;6.78;5.22;;;;;;;17.78;100.00;99977.16;1754048;81;21114;-74
2022/08/08 03:59:18;;;;;;;7.92;4.75;;;;;;;17.75;100.00;99975.14;1753726;81;21062;-75
2022/08/08 04:01:45;;;;;;;8.18;5.40;;;;;;;17.72;100.00;99976.19;1753998;81;21058;-74
2022/08/08 04:04:12;;;;;;;11.73;5.72;;;;;;;17.74;100.00;99975.63;1753647;81;22263;-75
2022/08/08 04:06:44;;;;;;;8.65;4.95;;;;;;;17.76;100.00;99972.39;1754220;81;21102;-74
2022/08/08 04:09:12;;;;;;;6.62;4.45;;;;;;;17.78;100.00;99977.16;1725342;81;21381;-74
2022/08/08 04:11:41;;;;;;;8.63;5.00;;;;;;;17.81;100.00;99982.79;1701058;81;21126;-75
2022/08/08 04:14:09;;;;;;;10.53;5.08;;;;;;;17.82;100.00;99973.39;1753456;81;21031;-75
2022/08/08 04:16:36;;;;;;;5.40;5.00;;;;;;;17.88;100.00;99982.00;1753733;81;21585;-74
2022/08/08 04:19:03;;;;;;;6.25;5.12;;;;;;;17.93;100.00;99977.27;1753954;81;21106;-74
2022/08/08 04:21:30;;;;;;;9.20;5.08;;;;;;;17.96;100.00;99982.42;1754008;81;21026;-74
2022/08/08 04:23:57;;;;;;;8.25;5.30;;;;;;;17.98;100.00;99978.70;1754067;81;21094;-74
2022/08/08 04:26:24;;;;;;;10.82;5.67;;;;;;;17.98;100.00;99976.04;1753701;81;21110;-74
2022/08/08 04:28:50;;;;;;;14.68;5.30;;;;;;;17.99;100.00;99987.57;1754140;81;21051;-74
2022/08/08 04:31:17;;;;;;;10.65;5.17;;;;;;;18.00;100.00;99983.94;1753976;81;20996;-74
2022/08/08 04:33:44;;;;;;;12.07;5.00;;;;;;;18.03;100.00;99982.44;1753915;81;21079;-75
2022/08/08 04:36:10;;;;;;;13.25;5.92;;;;;;;18.06;100.00;99983.59;1751151;81;21781;-74
2022/08/08 04:38:37;;;;;;;8.93;4.65;;;;;;;18.09;100.00;99984.75;1730059;82;20971;-75
2022/08/08 04:41:05;;;;;;;8.23;4.62;;;;;;;18.15;99.90;99983.04;1728942;82;20981;-74
2022/08/08 04:43:32;;;;;;;7.90;5.00;;;;;;;18.18;99.69;99980.20;1729617;82;20993;-74
2022/08/08 04:45:59;;;;;;;7.15;4.60;;;;;;;18.24;99.50;99984.78;1721288;82;21081;-75
2022/08/08 04:48:26;;;;;;;6.25;4.60;;;;;;;18.25;99.35;99982.52;1740399;81;21128;-74
2022/08/08 04:50:53;;;;;;;8.68;4.40;;;;;;;18.26;99.21;99984.24;1739029;82;21062;-75
2022/08/08 04:53:21;;;;;;;9.53;5.03;;;;;;;18.29;98.99;99991.58;1739540;82;20996;-75
2022/08/08 04:55:49;;;;;;;4.78;4.33;;;;;;;18.33;98.78;99992.25;1739968;82;21547;-75
2022/08/08 04:58:16;;;;;;;7.28;5.15;;;;;;;18.32;98.65;99992.70;1711024;82;21641;-74
2022/08/08 05:00:43;;;;;;;8.83;4.87;;;;;;;18.33;98.59;99986.44;1739756;81;21275;-74
2022/08/08 05:03:09;;;;;;;10.82;5.12;;;;;;;18.35;98.47;99986.34;1735596;82;21063;-74
2022/08/08 05:05:36;;;;;;;8.43;5.15;;;;;;;18.38;98.26;99980.84;1739762;82;21078;-75
2022/08/08 05:08:03;;;;;;;7.25;5.20;;;;;;;18.37;98.23;99988.44;1739525;82;21630;-75
2022/08/08 05:10:30;;;;;;;9.68;4.90;;;;;;;18.36;98.15;99988.08;1737844;82;21456;-74
2022/08/08 05:12:57;;;;;;;8.23;4.85;;;;;;;18.36;98.18;99990.73;1739389;80;22370;-75
2022/08/08 05:15:24;;;;;;;8.15;5.42;;;;;;;18.36;98.17;99985.41;1738785;82;21590;-74
2022/08/08 05:17:51;;;;;;;5.58;4.58;;;;;;;18.40;98.06;99984.27;1710875;82;21048;-75
2022/08/08 05:20:18;;;;;;;7.37;5.40;;;;;;;18.42;98.01;99991.69;1740279;81;21056;-75
2022/08/08 05:22:45;;;;;;;6.12;5.33;;;;;;;18.44;97.89;99998.25;1739775;82;21142;-75
2022/08/08 05:25:11;;;;;;;5.95;5.00;;;;;;;18.46;97.83;100005.22;1739979;82;22282;-75
2022/08/08 05:27:38;;;;;;;8.75;5.30;;;;;;;18.45;97.77;99995.98;1739856;80;21013;-74
2022/08/08 05:30:08;;;;;;;5.20;4.70;;;;;;;18.46;97.77;100006.55;1739507;82;21071;-75
2022/08/08 05:32:39;;;;;;;6.17;5.30;;;;;;;18.49;97.79;100014.38;1739186;82;21687;-75
2022/08/08 05:35:08;;;;;;;6.62;5.47;;;;;;;18.51;97.76;100013.80;1739688;82;21006;-75
2022/08/08 05:37:40;;;;;;;10.32;5.37;;;;;;;18.53;97.53;100014.56;1724430;81;21150;-76
2022/08/08 05:40:08;;;;;;;6.35;5.00;;;;;;;18.58;97.52;100019.63;1743162;82;21044;-75
2022/08/08 05:42:44;;;;;;;6.83;6.10;;;;;;;18.60;97.49;100020.37;1743583;82;21067;-76
2022/08/08 05:45:15;;;;;;;10.80;6.00;;;;;;;18.57;97.25;100021.41;1743293;82;21040;-74
2022/08/08 05:47:42;;;;;;;5.35;4.85;;;;;;;18.54;97.27;100032.28;1743497;82;21063;-74
2022/08/08 05:50:10;;;;;;;7.70;4.92;;;;;;;18.52;97.23;100031.48;1743512;82;21075;-75
2022/08/08 05:52:37;;;;;;;7.90;5.20;;;;;;;18.54;97.23;100029.61;1743305;82;21162;-74
2022/08/08 05:55:08;;;;;;;11.25;5.55;;;;;;;18.55;97.20;100029.12;1743524;82;21093;-74
2022/08/08 05:57:37;;;;;;;8.83;5.60;;;;;;;18.57;97.27;100026.73;1722264;82;21566;-75
2022/08/08 06:00:09;;;;;;;10.93;5.03;;;;;;;18.57;97.31;100028.06;1744652;81;20988;-75
2022/08/08 06:05:35;;;;;;;6.00;5.47;;;;;;;18.66;97.09;100024.47;1743229;82;21039;-75
2022/08/08 06:08:02;;;;;;;8.05;5.55;;;;;;;18.68;96.88;100027.92;1747034;82;21095;-75
2022/08/08 06:10:32;;;;;;;7.60;5.58;;;;;;;18.68;96.91;100025.27;1729813;82;21099;-74
2022/08/08 06:13:00;;;;;;;6.78;4.70;;;;;;;18.71;96.79;100027.72;1743394;82;21625;-75
2022/08/08 06:15:28;;;;;;;6.97;6.10;;;;;;;18.73;96.77;100033.84;1743252;82;21255;-75
2022/08/08 06:17:55;;;;;;;7.45;5.33;;;;;;;18.73;96.61;100034.69;1721607;82;21711;-74
2022/08/08 06:20:22;;;;;;;6.85;5.90;;;;;;;18.73;96.47;100029.84;1729923;82;21575;-75
2022/08/08 06:22:50;;;;;;;7.67;5.85;;;;;;;18.76;96.44;100033.63;1729712;82;21017;-75
2022/08/08 06:25:18;;;;;;;6.95;6.00;;;;;;;18.76;96.41;100036.30;1729802;82;21380;-75
2022/08/08 06:27:54;;;;;;;9.05;6.15;;;;;;;18.76;96.41;100037.63;1743547;82;21107;-75
2022/08/08 06:30:22;;;;;;;9.48;6.90;;;;;;;18.76;96.34;100028.30;1746540;82;21147;-74
2022/08/08 06:32:56;;;;;;;9.03;6.08;;;;;;;18.76;96.46;100028.30;1743278;82;21098;-75
2022/08/08 06:35:24;;;;;;;9.60;5.97;;;;;;;18.76;96.33;100030.96;1730007;82;21233;-74
2022/08/08 06:37:59;;;;;;;9.28;6.65;;;;;;;18.81;96.35;100032.91;1733801;82;21114;-74
2022/08/08 06:40:30;;;;;;;8.58;5.92;;;;;;;18.78;96.19;100034.42;1729260;82;21132;-75
2022/08/08 06:43:06;;;;;;;13.05;5.87;;;;;;;18.74;96.16;100039.08;1728517;82;21048;-75
2022/08/08 06:45:37;;;;;;;9.13;6.00;;;;;;;18.75;96.23;100045.26;1737009;82;21087;-74
2022/08/08 06:48:04;;;;;;;9.40;6.28;;;;;;;18.79;96.03;100046.77;1736951;82;21539;-74
2022/08/08 06:50:33;;;;;;;8.28;6.33;;;;;;;18.79;95.97;100054.77;1736947;82;21053;-75
2022/08/08 06:53:01;;;;;;;11.12;6.35;;;;;;;18.77;96.01;100048.69;1736805;82;21092;-74
2022/08/08 06:55:29;;;;;;;9.48;5.87;;;;;;;18.78;95.97;100057.08;1737096;82;21033;-75
2022/08/08 06:57:56;;;;;;;10.85;5.90;;;;;;;18.80;95.87;100055.17;1715982;82;21081;-74
2022/08/08 07:00:23;;;;;;;6.67;5.33;;;;;;;18.81;95.89;100061.34;1737436;82;21085;-75
2022/08/08 07:02:52;;;;;;;7.47;5.50;;;;;;;18.82;95.95;100057.26;1736893;82;21065;-74
2022/08/08 07:05:24;;;;;;;10.10;6.20;;;;;;;18.84;95.79;100066.05;1737418;82;21102;-74
2022/08/08 07:07:57;;;;;;;7.05;6.12;;;;;;;18.82;95.77;100063.92;1736899;82;21053;-75
2022/08/08 07:10:26;;;;;;;7.08;5.75;;;;;;;18.86;95.67;100062.84;1737127;82;21135;-74
2022/08/08 07:13:05;;;;;;;6.55;5.90;;;;;;;18.88;95.55;100059.59;1737110;82;21025;-76
2022/08/08 07:16:03;;;;;;;14.05;7.20;;;;;;;18.92;95.58;100059.78;1737329;82;21064;-74
2022/08/08 07:18:57;;;;;;;9.45;6.12;;;;;;;18.95;95.53;100060.09;1735848;80;21956;-75
2022/08/08 07:21:28;;;;;;;10.00;5.62;;;;;;;18.97;95.34;100060.84;1737267;82;21064;-75
2022/08/08 07:24:20;;;;;;;7.22;6.00;;;;;;;19.00;95.23;100062.48;1736984;82;21128;-74
2022/08/08 07:26:49;;;;;;;6.35;5.75;;;;;;;19.02;95.05;100064.57;1699468;81;21065;-74
2022/08/08 07:29:15;;;;;;;14.45;6.67;;;;;;;19.04;95.06;100070.66;1737038;82;21052;-75
2022/08/08 07:31:42;;;;;;;10.23;6.80;;;;;;;19.08;95.10;100066.84;1737625;82;21458;-75
2022/08/08 07:34:10;;;;;;;13.13;6.53;;;;;;;19.05;95.06;100065.72;1736942;82;22089;-74
2022/08/08 07:36:38;;;;;;;14.73;6.97;;;;;;;19.06;95.03;100067.42;1737334;82;21147;-74
2022/08/08 07:39:06;;;;;;;7.42;6.22;;;;;;;19.07;95.24;100070.48;1746772;82;46909;-75
2022/08/08 07:41:39;;;;;;;8.80;6.90;;;;;;;19.10;95.35;100069.81;1736980;81;21525;-75
2022/08/08 07:44:05;;;;;;;8.13;6.03;;;;;;;19.15;95.35;100065.98;1737265;82;21143;-75
2022/08/08 07:46:32;;;;;;;11.88;6.92;;;;;;;19.21;95.19;100067.80;1736977;82;21477;-74
2022/08/08 07:49:01;;;;;;;9.68;6.25;;;;;;;19.24;95.29;100068.95;1745191;82;21169;-76
2022/08/08 07:51:28;;;;;;;7.83;6.10;;;;;;;19.27;95.35;100074.10;1736998;82;21124;-75
2022/08/08 07:54:21;;;;;;;8.28;6.05;;;;;;;19.32;95.23;100069.83;1742107;82;21096;-75
2022/08/08 07:57:08;;;;;;;11.20;6.53;;;;;;;19.35;94.88;100068.30;1737133;82;21841;-75
2022/08/08 07:59:49;;;;;;;7.35;6.17;;;;;;;19.36;94.87;100069.16;1748131;82;22165;-74
2022/08/08 08:02:21;;;;;;;11.70;6.62;;;;;;;19.40;94.79;100068.00;1745984;82;21076;-75
2022/08/08 08:04:49;;;;;;;11.03;5.87;;;;;;;19.47;94.71;100072.02;1735195;81;21112;-75
2022/08/08 08:07:16;;;;;;;11.48;6.95;;;;;;;19.49;94.43;100068.28;1747922;82;21677;-74
2022/08/08 08:09:43;;;;;;;9.75;7.00;;;;;;;19.51;94.27;100078.86;1726031;82;21352;-74
2022/08/08 08:12:11;;;;;;;7.62;6.05;;;;;;;19.51;94.24;100079.34;1737437;81;21138;-75
2022/08/08 08:15:03;;;;;;;7.55;6.12;;;;;;;19.49;94.30;100076.29;1748166;82;21011;-74
2022/08/08 08:17:30;;;;;;;12.33;6.45;;;;;;;19.50;93.82;100075.80;1748202;82;21043;-74
2022/08/08 08:19:58;;;;;;;9.40;6.55;;;;;;;19.51;93.98;100083.35;1737320;82;21688;-74
2022/08/08 08:22:26;;;;;;;7.78;6.62;;;;;;;19.52;94.23;100083.26;1747822;82;21091;-74
2022/08/08 08:24:52;;;;;;;11.88;6.53;;;;;;;19.52;94.16;100077.92;1737318;81;20981;-75
2022/08/08 08:27:20;;;;;;;10.15;6.45;;;;;;;19.54;94.22;100081.34;1737659;82;21154;-74
2022/08/08 08:29:49;;;;;;;11.55;7.25;;;;;;;19.57;94.13;100085.16;1737553;82;21138;-75
2022/08/08 08:32:16;;;;;;;8.90;7.97;;;;;;;19.55;93.83;100083.08;1748072;82;21074;-74
2022/08/08 08:34:43;;;;;;;7.90;6.85;;;;;;;19.47;93.59;100088.03;1737502;81;21178;-74
2022/08/08 08:37:10;;;;;;;8.60;6.47;;;;;;;19.38;93.85;100088.59;1747250;82;21053;-75
2022/08/08 08:39:38;;;;;;;13.05;7.17;;;;;;;19.37;94.14;100081.55;1734818;82;21017;-75
2022/08/08 08:42:06;;;;;;;14.75;7.97;;;;;;;19.41;94.34;100083.06;1734804;82;21574;-74
2022/08/08 08:44:33;;;;;;;14.40;7.60;;;;;;;19.45;94.29;100085.91;1734748;82;21023;-75
2022/08/08 08:46:59;;;;;;;7.05;6.30;;;;;;;19.47;94.33;100081.36;1734264;82;21848;-75
2022/08/08 08:49:27;;;;;;;8.30;6.47;;;;;;;19.52;94.20;100081.05;1734557;82;21531;-75
2022/08/08 08:51:53;;;;;;;15.53;7.05;;;;;;;19.56;94.13;100083.44;1734467;82;20985;-75
2022/08/08 08:54:21;;;;;;;10.00;6.78;;;;;;;19.62;94.26;100082.20;1734861;82;20981;-74
2022/08/08 08:56:48;;;;;;;9.78;6.53;;;;;;;19.68;94.25;100083.13;1734918;82;21074;-76
2022/08/08 08:59:15;;;;;;;7.85;5.92;;;;;;;19.74;93.82;100085.91;1734871;82;21159;-74
2022/08/08 09:01:43;;;;;;;5.95;5.35;;;;;;;19.86;94.15;100082.48;1710730;82;21059;-74
2022/08/08 09:04:21;;;;;;;11.05;6.30;;;;;;;19.99;94.03;100078.55;1734113;82;21115;-76
2022/08/08 09:06:50;;;;;;;9.30;5.40;;;;;;;20.13;93.19;100080.31;1735089;82;21107;-74
2022/08/08 09:09:27;;;;;;;7.33;5.45;;;;;;;20.19;92.60;100085.23;1734475;82;21064;-75
2022/08/08 09:11:57;;;;;;;8.53;5.40;;;;;;;20.23;91.82;100088.95;1734526;82;21202;-75
2022/08/08 09:14:24;;;;;;;6.58;5.80;;;;;;;20.26;91.51;100090.58;1734607;82;21067;-75
2022/08/08 09:16:54;;;;;;;10.50;6.00;;;;;;;20.31;90.80;100089.79;1734928;82;21579;-74
2022/08/08 09:19:20;;;;;;;5.95;5.12;;;;;;;20.32;90.58;100088.81;1734525;82;21012;-75
2022/08/08 09:21:50;;;;;;;10.85;5.42;;;;;;;20.36;90.75;100085.48;1734756;82;21103;-75
2022/08/08 09:24:17;;;;;;;5.00;4.50;;;;;;;20.48;90.66;100079.31;1710997;82;21092;-75
2022/08/08 09:27:02;;;;;;;10.55;5.83;;;;;;;20.61;90.54;100080.69;1734594;82;21135;-75
2022/08/08 09:29:31;;;;;;;;;;;;;;;20.72;89.79;100083.50;1737112;81;21122;-76
2022/08/08 09:32:06;;;;;;;9.83;6.50;;;;;;;20.72;88.42;100080.83;1734710;81;20530;-75
2022/08/08 09:34:38;;;;;;;7.12;6.42;;;;;;;20.60;87.95;100082.98;1734327;82;21035;-75
2022/08/08 09:37:08;;;;;;;9.13;7.12;;;;;;;20.50;88.46;100084.07;1734363;82;21275;-75
2022/08/08 09:39:43;;;;;;;8.55;7.00;;;;;;;20.47;88.63;100086.09;1734861;82;20998;-75
2022/08/08 09:42:14;;;;;;;11.88;7.20;;;;;;;20.40;88.91;100083.82;1731995;81;21083;-74
2022/08/08 09:45:19;;;;;;;8.80;6.72;;;;;;;20.40;89.47;100081.14;1734865;81;21088;-75
2022/08/08 09:47:46;;;;;;;10.08;5.97;;;;;;;20.49;90.05;100079.67;1734595;82;21111;-75
2022/08/08 09:50:18;;;;;;;9.00;6.80;;;;;;;20.65;90.12;100079.55;1735079;82;21507;-76
2022/08/08 09:52:49;;;;;;;12.78;6.90;;;;;;;20.80;89.66;100074.13;1734544;82;21098;-76
2022/08/08 09:55:17;;;;;;;7.08;6.37;;;;;;;20.93;89.11;100077.64;1734887;82;21234;-75
2022/08/08 09:57:47;;;;;;;9.43;7.12;;;;;;;21.00;88.14;100080.30;1734742;82;21115;-75
2022/08/08 10:00:16;;;;;;;8.48;7.10;;;;;;;21.03;87.49;100086.77;1734854;82;21044;-75
2022/08/08 10:02:45;;;;;;;13.18;7.75;;;;;;;21.02;87.39;100087.72;1734663;82;21118;-75
2022/08/08 10:05:21;;;;;;;9.88;7.87;;;;;;;21.04;87.44;100088.47;1734577;82;20989;-76
2022/08/08 10:07:55;;;;;;;8.15;6.70;;;;;;;21.07;86.93;100086.08;1734642;82;21072;-75
2022/08/08 10:10:39;;;;;;;8.20;6.85;;;;;;;21.08;86.90;100091.32;1725802;82;21051;-75
2022/08/08 10:13:24;;;;;;;7.53;6.78;;;;;;;21.11;86.68;100091.08;1724524;83;21043;-74
2022/08/08 10:15:52;;;;;;;10.05;6.33;;;;;;;21.17;86.28;100094.33;1724520;83;21789;-75
2022/08/08 10:18:25;;;;;;;11.60;6.30;;;;;;;21.20;85.79;100090.07;1724621;83;21104;-75
2022/08/08 10:20:54;;;;;;;8.88;6.95;;;;;;;21.26;86.08;100095.01;1724462;83;21079;-76
2022/08/08 10:23:26;;;;;;;10.43;9.35;;;;;;;21.30;85.80;100093.81;1724646;83;21154;-74
2022/08/08 10:25:55;;;;;;;14.05;9.80;;;;;;;21.29;85.74;100090.78;1722728;83;21154;-75
2022/08/08 10:28:21;;;;;;;10.65;5.92;;;;;;;21.33;85.81;100090.92;1724142;83;21259;-75
2022/08/08 10:30:56;;;;;;;6.75;5.92;;;;;;;21.40;85.30;100090.89;1724247;83;21479;-75
2022/08/08 10:33:30;;;;;;;7.25;5.78;;;;;;;21.45;84.88;100089.20;1724436;83;21638;-74
2022/08/08 10:36:02;;;;;;;6.08;5.22;;;;;;;21.49;84.81;100094.27;1724942;83;21173;-76
2022/08/08 10:38:36;;;;;;;7.37;5.90;;;;;;;21.56;84.32;100098.70;1728813;81;21637;-75
2022/08/08 10:41:03;;;;;;;6.60;5.75;;;;;;;21.61;83.89;100097.05;1739328;81;21120;-76
2022/08/08 10:43:40;;;;;;;6.40;5.80;;;;;;;21.66;83.91;100089.54;1734288;81;21564;-76
2022/08/08 10:46:25;;;;;;;6.60;5.80;;;;;;;21.66;83.31;100092.22;1734761;82;21080;-75
2022/08/08 10:48:53;;;;;;;7.25;6.00;;;;;;;21.64;82.81;100084.78;1734879;82;21091;-76
2022/08/08 10:51:27;;;;;;;6.87;5.35;;;;;;;21.62;83.00;100088.91;1734659;82;21071;-75
2022/08/08 10:53:56;;;;;;;5.95;5.40;;;;;;;21.65;82.54;100087.81;1735105;82;21179;-76
2022/08/08 10:56:23;;;;;;;6.30;5.50;;;;;;;21.67;82.14;100091.23;1734629;82;21051;-75
2022/08/08 10:58:57;;;;;;;8.83;5.30;;;;;;;21.61;81.36;100079.64;1734652;82;21008;-75
2022/08/08 11:01:29;;;;;;;5.97;5.20;;;;;;;21.55;82.05;100080.07;1734522;82;21067;-75
2022/08/08 11:03:58;;;;;;;7.87;5.75;;;;;;;21.55;82.32;100080.92;1734890;82;21031;-75
2022/08/08 11:06:33;;;;;;;7.33;4.92;;;;;;;21.55;82.23;100078.23;1734853;82;21110;-75
2022/08/08 11:09:05;;;;;;;5.55;4.92;;;;;;;21.52;82.56;100071.80;1734526;82;21040;-76
2022/08/08 11:11:44;;;;;;;8.80;5.35;;;;;;;21.50;82.38;100074.58;1734927;82;21004;-75
2022/08/08 11:14:13;;;;;;;5.78;5.20;;;;;;;21.47;82.56;100077.47;1734417;82;21063;-75
2022/08/08 11:16:42;;;;;;;6.72;5.58;;;;;;;21.46;82.83;100077.05;1734822;82;21486;-75
2022/08/08 11:19:08;;;;;;;7.47;5.65;;;;;;;21.44;82.61;100074.97;1734601;82;21766;-75
2022/08/08 11:21:45;;;;;;;7.35;6.10;;;;;;;21.36;83.01;100073.31;1734888;82;21587;-75
2022/08/08 11:24:07;;;;;;;13.88;6.50;;;;;;;21.35;83.07;100068.95;1732074;81;21025;-75
2022/08/08 11:26:37;;;;;;;6.08;5.45;;;;;;;21.29;83.32;100068.88;1734585;82;21118;-75
2022/08/08 11:29:05;;;;;;;7.12;5.67;;;;;;;21.33;83.48;100072.19;1734862;82;21713;-75
2022/08/08 11:31:37;;;;;;;7.85;5.25;;;;;;;21.41;83.60;100073.00;1734365;82;21142;-76
2022/08/08 11:34:04;;;;;;;6.92;5.85;;;;;;;21.51;83.64;100076.27;1734540;82;21107;-75
2022/08/08 11:36:32;;;;;;;6.97;5.97;;;;;;;21.66;83.47;100074.81;1734555;82;21127;-75
2022/08/08 11:38:59;;;;;;;8.90;5.72;;;;;;;21.74;82.12;100067.08;1734523;82;20965;-75
2022/08/08 11:41:27;;;;;;;13.03;6.28;;;;;;;21.70;81.58;100065.58;1734719;82;21617;-75
2022/08/08 11:43:54;;;;;;;6.42;5.58;;;;;;;21.64;81.88;100067.37;1734448;82;21790;-76
2022/08/08 11:46:22;;;;;;;5.72;5.10;;;;;;;21.66;82.04;100062.76;1734709;82;21055;-75
2022/08/08 11:48:49;;;;;;;7.80;5.12;;;;;;;21.71;81.90;100052.56;1734743;82;21041;-75
2022/08/08 11:51:17;;;;;;;10.45;5.35;;;;;;;21.81;81.99;100054.95;1734879;82;21646;-75
2022/08/08 11:53:43;;;;;;;5.95;5.35;;;;;;;21.94;81.66;100055.38;1734725;82;21083;-75
2022/08/08 11:56:21;;;;;;;11.53;5.97;;;;;;;22.03;80.73;100056.05;1735023;82;21125;-75
2022/08/08 11:58:47;;;;;;;10.90;5.28;;;;;;;22.08;81.07;100056.07;1734676;82;21071;-75
2022/08/08 12:01:14;;;;;;;6.42;4.78;;;;;;;22.18;80.76;100053.57;1734777;82;21067;-75
2022/08/08 12:03:46;;;;;;;5.90;5.30;;;;;;;22.32;80.43;100054.40;1734676;82;21047;-75
2022/08/08 12:06:17;;;;;;;8.25;5.83;;;;;;;22.45;80.09;100056.03;1734881;82;21051;-75
2022/08/08 12:08:45;;;;;;;7.60;5.30;;;;;;;22.57;79.18;100048.88;1734737;82;21267;-76